sensor_id;sensor_type;location;lat;lon;timestamp;pressure;altitude;pressure_sealevel;temperature;humidity
60654;BME280;46476;53.614;10.048;2022-07-23T00:00:46;101558.06;;;21.06;48.86
60654;BME280;46476;53.614;10.048;2022-07-23T00:03:12;101551.94;;;21.04;48.75
60654;BME280;46476;53.614;10.048;2022-07-23T00:05:38;101558.50;;;21.03;49.00
60654;BME280;46476;53.614;10.048;2022-07-23T00:08:04;101558.50;;;21.03;48.67
60654;BME280;46476;53.614;10.048;2022-07-23T00:10:30;101545.78;;;21.02;48.55
60654;BME280;46476;53.614;10.048;2022-07-23T00:12:55;101547.69;;;21.02;48.72
60654;BME280;46476;53.614;10.048;2022-07-23T00:15:20;101534.97;;;21.01;48.34
60654;BME280;46476;53.614;10.048;2022-07-23T00:17:46;101530.50;;;21.00;48.64
60654;BME280;46476;53.614;10.048;2022-07-23T00:20:11;101523.28;;;20.99;48.80
60654;BME280;46476;53.614;10.048;2022-07-23T00:22:36;101527.75;;;21.00;48.63
60654;BME280;46476;53.614;10.048;2022-07-23T00:25:02;101527.97;;;20.98;48.61
60654;BME280;46476;53.614;10.048;2022-07-23T00:27:27;101538.09;;;20.98;48.41
60654;BME280;46476;53.614;10.048;2022-07-23T00:29:53;101526.47;;;20.96;48.55
60654;BME280;46476;53.614;10.048;2022-07-23T00:32:18;101526.47;;;20.96;48.68
60654;BME280;46476;53.614;10.048;2022-07-23T00:34:43;101526.47;;;20.96;48.58
60654;BME280;46476;53.614;10.048;2022-07-23T00:37:09;101533.22;;;20.93;48.42
60654;BME280;46476;53.614;10.048;2022-07-23T00:39:34;101526.00;;;20.92;48.50
60654;BME280;46476;53.614;10.048;2022-07-23T00:41:59;101528.09;;;20.90;48.55
60654;BME280;46476;53.614;10.048;2022-07-23T00:44:27;101520.03;;;20.88;48.46
60654;BME280;46476;53.614;10.048;2022-07-23T00:46:55;101521.97;;;20.88;48.47
60654;BME280;46476;53.614;10.048;2022-07-23T00:49:25;101521.97;;;20.88;48.61
60654;BME280;46476;53.614;10.048;2022-07-23T00:51:51;101521.75;;;20.89;48.43
60654;BME280;46476;53.614;10.048;2022-07-23T00:54:17;101524.28;;;20.91;48.42
60654;BME280;46476;53.614;10.048;2022-07-23T00:56:45;101508.66;;;20.91;48.43
60654;BME280;46476;53.614;10.048;2022-07-23T00:59:11;101514.16;;;20.91;48.31
60654;BME280;46476;53.614;10.048;2022-07-23T01:01:36;101513.28;;;20.91;48.10
60654;BME280;46476;53.614;10.048;2022-07-23T01:04:02;101512.44;;;20.90;48.33
60654;BME280;46476;53.614;10.048;2022-07-23T01:06:28;101519.66;;;20.91;48.15
60654;BME280;46476;53.614;10.048;2022-07-23T01:08:54;101517.09;;;20.90;48.46
60654;BME280;46476;53.614;10.048;2022-07-23T01:11:20;101520.25;;;20.87;48.42
60654;BME280;46476;53.614;10.048;2022-07-23T01:13:47;101515.16;;;20.84;48.26
60654;BME280;46476;53.614;10.048;2022-07-23T01:16:12;101510.91;;;20.81;48.29
60654;BME280;46476;53.614;10.048;2022-07-23T01:18:38;101503.03;;;20.78;48.54
60654;BME280;46476;53.614;10.048;2022-07-23T01:21:04;101496.69;;;20.77;48.61
60654;BME280;46476;53.614;10.048;2022-07-23T01:23:29;101496.69;;;20.77;48.71
60654;BME280;46476;53.614;10.048;2022-07-23T01:25:55;101503.25;;;20.76;48.70
60654;BME280;46476;53.614;10.048;2022-07-23T01:28:20;101497.75;;;20.76;48.51
60654;BME280;46476;53.614;10.048;2022-07-23T01:30:46;101497.06;;;20.74;48.77
60654;BME280;46476;53.614;10.048;2022-07-23T01:33:12;101502.78;;;20.73;48.84
60654;BME280;46476;53.614;10.048;2022-07-23T01:35:38;101500.25;;;20.71;48.68
60654;BME280;46476;53.614;10.048;2022-07-23T01:38:03;101499.56;;;20.69;48.88
60654;BME280;46476;53.614;10.048;2022-07-23T01:40:28;101497.88;;;20.68;48.86
60654;BME280;46476;53.614;10.048;2022-07-23T01:42:54;101498.06;;;20.67;48.80
60654;BME280;46476;53.614;10.048;2022-07-23T01:45:19;101499.97;;;20.66;49.11
60654;BME280;46476;53.614;10.048;2022-07-23T01:47:45;101496.38;;;20.66;49.13
60654;BME280;46476;53.614;10.048;2022-07-23T01:50:11;101498.47;;;20.64;49.29
60654;BME280;46476;53.614;10.048;2022-07-23T01:52:36;101501.41;;;20.62;49.32
60654;BME280;46476;53.614;10.048;2022-07-23T01:55:02;101497.41;;;20.65;49.19
60654;BME280;46476;53.614;10.048;2022-07-23T01:57:27;101492.75;;;20.65;48.98
60654;BME280;46476;53.614;10.048;2022-07-23T01:59:52;101477.75;;;20.68;48.98
60654;BME280;46476;53.614;10.048;2022-07-23T02:02:18;101475.84;;;20.68;49.05
60654;BME280;46476;53.614;10.048;2022-07-23T02:04:43;101467.59;;;20.68;48.99
60654;BME280;46476;53.614;10.048;2022-07-23T02:07:08;101465.91;;;20.67;49.31
60654;BME280;46476;53.614;10.048;2022-07-23T02:09:34;101461.22;;;20.68;49.64
60654;BME280;46476;53.614;10.048;2022-07-23T02:12:00;101459.72;;;20.65;49.23
60654;BME280;46476;53.614;10.048;2022-07-23T02:14:26;101454.88;;;20.67;49.27
60654;BME280;46476;53.614;10.048;2022-07-23T02:16:51;101458.69;;;20.66;49.01
60654;BME280;46476;53.614;10.048;2022-07-23T02:19:16;101465.22;;;20.65;49.21
60654;BME280;46476;53.614;10.048;2022-07-23T02:21:42;101462.69;;;20.64;49.10
60654;BME280;46476;53.614;10.048;2022-07-23T02:24:07;101462.47;;;20.65;49.10
60654;BME280;46476;53.614;10.048;2022-07-23T02:26:33;101454.22;;;20.65;49.08
60654;BME280;46476;53.614;10.048;2022-07-23T02:29:00;101450.63;;;20.65;49.12
60654;BME280;46476;53.614;10.048;2022-07-23T02:31:26;101455.06;;;20.59;49.18
60654;BME280;46476;53.614;10.048;2022-07-23T02:33:52;101454.19;;;20.58;49.35
60654;BME280;46476;53.614;10.048;2022-07-23T02:36:17;101464.97;;;20.60;49.51
60654;BME280;46476;53.614;10.048;2022-07-23T02:38:42;101457.16;;;20.57;49.18
60654;BME280;46476;53.614;10.048;2022-07-23T02:41:08;101455.44;;;20.56;49.49
60654;BME280;46476;53.614;10.048;2022-07-23T02:43:33;101455.66;;;20.54;49.63
60654;BME280;46476;53.614;10.048;2022-07-23T02:45:58;101457.34;;;20.55;49.40
60654;BME280;46476;53.614;10.048;2022-07-23T02:48:24;101457.56;;;20.54;49.57
60654;BME280;46476;53.614;10.048;2022-07-23T02:50:49;101448.84;;;20.50;49.78
60654;BME280;46476;53.614;10.048;2022-07-23T02:53:14;101446.47;;;20.47;49.80
60654;BME280;46476;53.614;10.048;2022-07-23T02:55:40;101452.84;;;20.48;49.57
60654;BME280;46476;53.614;10.048;2022-07-23T02:58:05;101451.34;;;20.45;49.90
60654;BME280;46476;53.614;10.048;2022-07-23T03:00:30;101450.06;;;20.41;50.06
60654;BME280;46476;53.614;10.048;2022-07-23T03:02:56;101454.22;;;20.37;50.18
60654;BME280;46476;53.614;10.048;2022-07-23T03:05:21;101445.56;;;20.33;50.30
60654;BME280;46476;53.614;10.048;2022-07-23T03:07:46;101439.59;;;20.30;50.47
60654;BME280;46476;53.614;10.048;2022-07-23T03:10:12;101440.00;;;20.26;50.38
60654;BME280;46476;53.614;10.048;2022-07-23T03:12:37;101437.25;;;20.26;50.55
60654;BME280;46476;53.614;10.048;2022-07-23T03:15:03;101431.56;;;20.28;50.66
60654;BME280;46476;53.614;10.048;2022-07-23T03:17:28;101435.59;;;20.32;50.72
60654;BME280;46476;53.614;10.048;2022-07-23T03:19:53;101434.13;;;20.36;50.52
60654;BME280;46476;53.614;10.048;2022-07-23T03:22:19;101432.69;;;20.40;50.46
60654;BME280;46476;53.614;10.048;2022-07-23T03:24:44;101435.44;;;20.40;50.32
60654;BME280;46476;53.614;10.048;2022-07-23T03:27:19;101435.22;;;20.42;50.61
60654;BME280;46476;53.614;10.048;2022-07-23T03:29:44;101432.47;;;20.42;50.41
60654;BME280;46476;53.614;10.048;2022-07-23T03:32:09;101429.94;;;20.40;50.14
60654;BME280;46476;53.614;10.048;2022-07-23T03:34:35;101429.94;;;20.40;50.54
60654;BME280;46476;53.614;10.048;2022-07-23T03:37:01;101431.19;;;20.38;50.19
60654;BME280;46476;53.614;10.048;2022-07-23T03:39:27;101427.38;;;20.39;50.62
60654;BME280;46476;53.614;10.048;2022-07-23T03:41:52;101430.59;;;20.42;50.39
60654;BME280;46476;53.614;10.048;2022-07-23T03:44:18;101437.97;;;20.42;50.52
60654;BME280;46476;53.614;10.048;2022-07-23T03:46:43;101430.59;;;20.42;50.27
60654;BME280;46476;53.614;10.048;2022-07-23T03:49:08;101431.19;;;20.38;50.69
60654;BME280;46476;53.614;10.048;2022-07-23T03:51:34;101443.22;;;20.37;50.85
60654;BME280;46476;53.614;10.048;2022-07-23T03:53:59;101430.09;;;20.32;50.83
60654;BME280;46476;53.614;10.048;2022-07-23T03:56:24;101429.22;;;20.32;50.80
60654;BME280;46476;53.614;10.048;2022-07-23T03:58:51;101440.22;;;20.32;50.73
60654;BME280;46476;53.614;10.048;2022-07-23T04:01:16;101445.72;;;20.32;50.81
60654;BME280;46476;53.614;10.048;2022-07-23T04:03:42;101449.56;;;20.31;51.04
60654;BME280;46476;53.614;10.048;2022-07-23T04:06:07;101457.59;;;20.32;50.99
60654;BME280;46476;53.614;10.048;2022-07-23T04:08:32;101450.84;;;20.35;50.93
60654;BME280;46476;53.614;10.048;2022-07-23T04:10:58;101455.97;;;20.44;50.95
60654;BME280;46476;53.614;10.048;2022-07-23T04:13:23;101452.06;;;20.54;50.71
60654;BME280;46476;53.614;10.048;2022-07-23T04:15:49;101447.44;;;20.61;50.64
60654;BME280;46476;53.614;10.048;2022-07-23T04:18:16;101453.84;;;20.68;50.89
60654;BME280;46476;53.614;10.048;2022-07-23T04:20:43;101446.91;;;20.72;50.50
60654;BME280;46476;53.614;10.048;2022-07-23T04:23:08;101460.47;;;20.74;50.62
60654;BME280;46476;53.614;10.048;2022-07-23T04:25:35;101466.63;;;20.76;50.68
60654;BME280;46476;53.614;10.048;2022-07-23T04:28:00;101464.28;;;20.80;50.64
60654;BME280;46476;53.614;10.048;2022-07-23T04:30:25;101466.47;;;20.84;50.95
60654;BME280;46476;53.614;10.048;2022-07-23T04:32:51;101458.44;;;20.89;50.39
60654;BME280;46476;53.614;10.048;2022-07-23T04:35:16;101457.84;;;20.94;50.47
60654;BME280;46476;53.614;10.048;2022-07-23T04:37:41;101465.22;;;20.93;50.46
60654;BME280;46476;53.614;10.048;2022-07-23T04:40:07;101464.59;;;20.91;50.76
60654;BME280;46476;53.614;10.048;2022-07-23T04:42:33;101460.38;;;20.96;51.13
60654;BME280;46476;53.614;10.048;2022-07-23T04:44:58;101464.44;;;21.00;50.76
60654;BME280;46476;53.614;10.048;2022-07-23T04:47:23;101453.88;;;21.03;50.77
60654;BME280;46476;53.614;10.048;2022-07-23T04:49:48;101464.88;;;21.03;50.54
60654;BME280;46476;53.614;10.048;2022-07-23T04:52:14;101460.63;;;21.01;50.79
60654;BME280;46476;53.614;10.048;2022-07-23T04:54:40;101467.38;;;20.98;50.58
60654;BME280;46476;53.614;10.048;2022-07-23T04:57:05;101468.00;;;21.00;50.78
60654;BME280;46476;53.614;10.048;2022-07-23T04:59:31;101461.91;;;21.05;50.21
60654;BME280;46476;53.614;10.048;2022-07-23T05:01:56;101468.72;;;21.09;50.14
60654;BME280;46476;53.614;10.048;2022-07-23T05:04:22;101468.91;;;21.07;49.89
60654;BME280;46476;53.614;10.048;2022-07-23T05:06:47;101481.84;;;21.07;49.77
60654;BME280;46476;53.614;10.048;2022-07-23T05:09:12;101480.13;;;21.06;49.40
60654;BME280;46476;53.614;10.048;2022-07-23T05:11:38;101475.25;;;21.08;49.16
60654;BME280;46476;53.614;10.048;2022-07-23T05:14:03;101470.16;;;21.05;49.68
60654;BME280;46476;53.614;10.048;2022-07-23T05:16:28;101468.88;;;21.01;49.72
60654;BME280;46476;53.614;10.048;2022-07-23T05:18:54;101457.84;;;20.94;49.91
60654;BME280;46476;53.614;10.048;2022-07-23T05:21:19;101461.00;;;20.98;49.83
60654;BME280;46476;53.614;10.048;2022-07-23T05:23:44;101455.34;;;20.99;49.80
60654;BME280;46476;53.614;10.048;2022-07-23T05:26:10;101456.59;;;20.97;49.91
60654;BME280;46476;53.614;10.048;2022-07-23T05:28:35;101471.59;;;20.94;49.88
60654;BME280;46476;53.614;10.048;2022-07-23T05:31:00;101477.94;;;20.94;50.14
60654;BME280;46476;53.614;10.048;2022-07-23T05:33:26;101485.16;;;20.96;49.87
60654;BME280;46476;53.614;10.048;2022-07-23T05:35:51;101487.69;;;20.90;50.22
60654;BME280;46476;53.614;10.048;2022-07-23T05:38:16;101492.75;;;20.93;50.32
60654;BME280;46476;53.614;10.048;2022-07-23T05:40:42;101477.94;;;20.94;50.20
60654;BME280;46476;53.614;10.048;2022-07-23T05:43:07;101484.28;;;20.95;50.02
60654;BME280;46476;53.614;10.048;2022-07-23T05:45:32;101487.50;;;20.99;49.90
60654;BME280;46476;53.614;10.048;2022-07-23T05:47:58;101482.84;;;20.99;49.92
60654;BME280;46476;53.614;10.048;2022-07-23T05:50:23;101487.75;;;21.04;49.61
60654;BME280;46476;53.614;10.048;2022-07-23T05:52:48;101484.59;;;21.07;49.64
60654;BME280;46476;53.614;10.048;2022-07-23T05:55:14;101480.63;;;21.16;49.18
60654;BME280;46476;53.614;10.048;2022-07-23T05:57:40;101479.34;;;21.19;48.84
60654;BME280;46476;53.614;10.048;2022-07-23T06:00:08;101477.22;;;21.21;49.13
60654;BME280;46476;53.614;10.048;2022-07-23T06:02:34;101484.88;;;21.19;48.74
60654;BME280;46476;53.614;10.048;2022-07-23T06:04:59;101481.91;;;21.20;49.05
60654;BME280;46476;53.614;10.048;2022-07-23T06:07:24;101486.16;;;21.23;49.19
60654;BME280;46476;53.614;10.048;2022-07-23T06:09:50;101482.59;;;21.29;48.75
60654;BME280;46476;53.614;10.048;2022-07-23T06:12:16;101479.41;;;21.32;48.77
60654;BME280;46476;53.614;10.048;2022-07-23T06:14:42;101484.31;;;21.37;48.67
60654;BME280;46476;53.614;10.048;2022-07-23T06:17:08;101482.41;;;21.37;48.57
60654;BME280;46476;53.614;10.048;2022-07-23T06:19:33;101486.19;;;21.36;48.76
60654;BME280;46476;53.614;10.048;2022-07-23T06:21:59;101484.72;;;21.34;48.43
60654;BME280;46476;53.614;10.048;2022-07-23T06:24:24;101488.28;;;21.27;48.46
60654;BME280;46476;53.614;10.048;2022-07-23T06:26:49;101479.53;;;21.17;49.24
60654;BME280;46476;53.614;10.048;2022-07-23T06:29:15;101489.50;;;21.18;49.06
60654;BME280;46476;53.614;10.048;2022-07-23T06:31:40;101489.03;;;21.08;49.32
60654;BME280;46476;53.614;10.048;2022-07-23T06:34:05;101475.91;;;21.10;49.23
60654;BME280;46476;53.614;10.048;2022-07-23T06:36:31;101481.44;;;21.17;49.92
60654;BME280;46476;53.614;10.048;2022-07-23T06:38:56;101482.59;;;21.36;49.42
60654;BME280;46476;53.614;10.048;2022-07-23T06:41:22;101482.66;;;21.49;48.96
60654;BME280;46476;53.614;10.048;2022-07-23T06:43:48;101481.59;;;21.50;48.81
60654;BME280;46476;53.614;10.048;2022-07-23T06:46:13;101479.94;;;21.56;48.85
60654;BME280;46476;53.614;10.048;2022-07-23T06:48:39;101489.22;;;21.48;48.72
60654;BME280;46476;53.614;10.048;2022-07-23T06:51:04;101485.59;;;21.41;48.75
60654;BME280;46476;53.614;10.048;2022-07-23T06:53:30;101486.84;;;21.32;48.83
60654;BME280;46476;53.614;10.048;2022-07-23T06:55:55;101488.13;;;21.36;49.01
60654;BME280;46476;53.614;10.048;2022-07-23T06:58:20;101495.75;;;21.40;48.74
60654;BME280;46476;53.614;10.048;2022-07-23T07:00:46;101489.41;;;21.40;48.58
60654;BME280;46476;53.614;10.048;2022-07-23T07:03:11;101493.63;;;21.36;48.48
60654;BME280;46476;53.614;10.048;2022-07-23T07:05:37;101501.91;;;21.36;48.76
60654;BME280;46476;53.614;10.048;2022-07-23T07:08:02;101511.66;;;21.38;48.60
60654;BME280;46476;53.614;10.048;2022-07-23T07:10:28;101510.78;;;21.38;48.65
60654;BME280;46476;53.614;10.048;2022-07-23T07:12:53;101509.94;;;21.37;48.48
60654;BME280;46476;53.614;10.048;2022-07-23T07:15:18;101513.53;;;21.38;48.57
60654;BME280;46476;53.614;10.048;2022-07-23T07:17:44;101508.91;;;21.38;48.74
60654;BME280;46476;53.614;10.048;2022-07-23T07:20:10;101522.22;;;21.35;49.05
60654;BME280;46476;53.614;10.048;2022-07-23T07:22:35;101532.81;;;21.38;49.00
60654;BME280;46476;53.614;10.048;2022-07-23T07:25:01;101532.81;;;21.38;49.46
60654;BME280;46476;53.614;10.048;2022-07-23T07:27:26;101531.16;;;21.37;49.99
60654;BME280;46476;53.614;10.048;2022-07-23T07:29:51;101537.25;;;21.32;50.51
60654;BME280;46476;53.614;10.048;2022-07-23T07:32:16;101544.19;;;21.21;50.79
60654;BME280;46476;53.614;10.048;2022-07-23T07:34:42;101536.25;;;21.05;51.26
60654;BME280;46476;53.614;10.048;2022-07-23T07:37:07;101529.59;;;20.92;51.50
60654;BME280;46476;53.614;10.048;2022-07-23T07:39:32;101533.34;;;20.85;51.61
60654;BME280;46476;53.614;10.048;2022-07-23T07:41:58;101534.81;;;20.81;51.74
60654;BME280;46476;53.614;10.048;2022-07-23T07:44:23;101534.75;;;20.74;51.91
60654;BME280;46476;53.614;10.048;2022-07-23T07:46:48;101533.47;;;20.70;52.13
60654;BME280;46476;53.614;10.048;2022-07-23T07:49:14;101530.03;;;20.68;52.25
60654;BME280;46476;53.614;10.048;2022-07-23T07:51:39;101536.78;;;20.65;51.71
60654;BME280;46476;53.614;10.048;2022-07-23T07:54:04;101525.38;;;20.68;52.10
60654;BME280;46476;53.614;10.048;2022-07-23T07:56:30;101520.56;;;20.70;52.53
60654;BME280;46476;53.614;10.048;2022-07-23T07:58:55;101524.59;;;20.74;52.35
60654;BME280;46476;53.614;10.048;2022-07-23T08:01:20;101527.44;;;20.81;51.88
60654;BME280;46476;53.614;10.048;2022-07-23T08:03:46;101528.09;;;20.90;51.50
60654;BME280;46476;53.614;10.048;2022-07-23T08:06:12;101530.06;;;20.96;51.06
60654;BME280;46476;53.614;10.048;2022-07-23T08:08:37;101526.59;;;20.87;50.91
60654;BME280;46476;53.614;10.048;2022-07-23T08:11:02;101517.91;;;20.84;50.95
60654;BME280;46476;53.614;10.048;2022-07-23T08:13:28;101523.41;;;20.84;51.18
60654;BME280;46476;53.614;10.048;2022-07-23T08:15:53;101520.22;;;20.80;50.91
60654;BME280;46476;53.614;10.048;2022-07-23T08:18:19;101534.97;;;20.72;50.52
60654;BME280;46476;53.614;10.048;2022-07-23T08:20:44;101542.47;;;20.64;51.18
60654;BME280;46476;53.614;10.048;2022-07-23T08:23:10;101536.72;;;20.58;51.81
60654;BME280;46476;53.614;10.048;2022-07-23T08:25:41;101538.63;;;20.58;52.52
60654;BME280;46476;53.614;10.048;2022-07-23T08:28:08;101537.59;;;20.59;53.00
60654;BME280;46476;53.614;10.048;2022-07-23T08:30:35;101533.13;;;20.58;52.54
60654;BME280;46476;53.614;10.048;2022-07-23T08:33:01;101523.84;;;20.59;52.93
60654;BME280;46476;53.614;10.048;2022-07-23T08:35:32;101524.47;;;20.61;52.84
60654;BME280;46476;53.614;10.048;2022-07-23T08:38:00;101530.63;;;20.63;52.73
60654;BME280;46476;53.614;10.048;2022-07-23T08:40:27;101534.91;;;20.66;52.67
60654;BME280;46476;53.614;10.048;2022-07-23T08:42:53;101533.19;;;20.65;52.06
60654;BME280;46476;53.614;10.048;2022-07-23T08:45:20;101523.88;;;20.66;51.83
60654;BME280;46476;53.614;10.048;2022-07-23T08:47:49;101529.38;;;20.66;51.68
60654;BME280;46476;53.614;10.048;2022-07-23T08:50:15;101532.78;;;20.68;51.45
60654;BME280;46476;53.614;10.048;2022-07-23T08:52:40;101533.47;;;20.70;51.11
60654;BME280;46476;53.614;10.048;2022-07-23T08:55:07;101533.72;;;20.75;50.74
60654;BME280;46476;53.614;10.048;2022-07-23T08:57:32;101521.22;;;20.72;50.05
60654;BME280;46476;53.614;10.048;2022-07-23T08:59:57;101523.09;;;20.72;50.11
60654;BME280;46476;53.614;10.048;2022-07-23T09:02:23;101527.56;;;20.73;50.21
60654;BME280;46476;53.614;10.048;2022-07-23T09:04:48;101521.66;;;20.76;50.01
60654;BME280;46476;53.614;10.048;2022-07-23T09:07:13;101532.94;;;20.81;50.18
60654;BME280;46476;53.614;10.048;2022-07-23T09:09:39;101519.41;;;20.86;49.93
60654;BME280;46476;53.614;10.048;2022-07-23T09:12:06;101519.44;;;20.93;49.60
60654;BME280;46476;53.614;10.048;2022-07-23T09:14:45;101515.25;;;20.97;49.50
60654;BME280;46476;53.614;10.048;2022-07-23T09:17:16;101524.34;;;20.98;49.25
60654;BME280;46476;53.614;10.048;2022-07-23T09:19:43;101523.94;;;21.01;48.70
60654;BME280;46476;53.614;10.048;2022-07-23T09:22:23;101525.84;;;21.00;48.85
60654;BME280;46476;53.614;10.048;2022-07-23T09:30:18;101511.69;;;21.03;48.82
60654;BME280;46476;53.614;10.048;2022-07-23T09:32:43;101522.47;;;21.05;48.57
60654;BME280;46476;53.614;10.048;2022-07-23T09:35:09;101523.97;;;21.07;48.73
60654;BME280;46476;53.614;10.048;2022-07-23T09:37:34;101529.28;;;21.09;49.00
60654;BME280;46476;53.614;10.048;2022-07-23T09:40:08;101526.53;;;21.09;49.02
60654;BME280;46476;53.614;10.048;2022-07-23T09:42:34;101531.81;;;21.10;49.22
60654;BME280;46476;53.614;10.048;2022-07-23T09:45:00;101534.41;;;21.12;49.11
60654;BME280;46476;53.614;10.048;2022-07-23T09:47:30;101537.78;;;21.14;48.83
60654;BME280;46476;53.614;10.048;2022-07-23T09:50:10;101529.53;;;21.14;49.34
60654;BME280;46476;53.614;10.048;2022-07-23T09:52:48;101532.28;;;21.14;49.33
60654;BME280;46476;53.614;10.048;2022-07-23T09:55:14;101538.63;;;21.15;49.29
60654;BME280;46476;53.614;10.048;2022-07-23T09:57:41;101531.22;;;21.15;48.86
60654;BME280;46476;53.614;10.048;2022-07-23T10:00:09;101531.44;;;21.14;48.97
60654;BME280;46476;53.614;10.048;2022-07-23T10:02:36;101540.75;;;21.13;48.89
60654;BME280;46476;53.614;10.048;2022-07-23T10:05:02;101538.84;;;21.13;48.97
60654;BME280;46476;53.614;10.048;2022-07-23T10:07:31;101546.84;;;21.08;48.66
60654;BME280;46476;53.614;10.048;2022-07-23T10:09:59;101554.69;;;21.04;49.03
60654;BME280;46476;53.614;10.048;2022-07-23T10:12:25;101548.31;;;21.04;49.07
60654;BME280;46476;53.614;10.048;2022-07-23T10:14:53;101547.94;;;21.07;48.65
60654;BME280;46476;53.614;10.048;2022-07-23T10:17:19;101541.75;;;21.05;48.84
60654;BME280;46476;53.614;10.048;2022-07-23T10:19:44;101549.56;;;21.01;48.99
60654;BME280;46476;53.614;10.048;2022-07-23T10:22:15;101551.69;;;20.99;48.82
60654;BME280;46476;53.614;10.048;2022-07-23T10:30:16;101546.44;;;21.04;49.08
60654;BME280;46476;53.614;10.048;2022-07-23T10:32:45;101549.00;;;21.13;49.17
60654;BME280;46476;53.614;10.048;2022-07-23T10:35:29;101551.34;;;21.16;49.32
60654;BME280;46476;53.614;10.048;2022-07-23T10:38:02;101548.63;;;21.22;48.78
60654;BME280;46476;53.614;10.048;2022-07-23T10:40:32;101550.34;;;21.23;48.87
60654;BME280;46476;53.614;10.048;2022-07-23T10:42:59;101551.22;;;21.24;48.79
60654;BME280;46476;53.614;10.048;2022-07-23T10:45:33;101554.34;;;21.21;48.83
60654;BME280;46476;53.614;10.048;2022-07-23T10:48:15;101567.28;;;21.20;48.60
60654;BME280;46476;53.614;10.048;2022-07-23T10:50:42;101566.41;;;21.20;49.04
60654;BME280;46476;53.614;10.048;2022-07-23T10:53:13;101570.66;;;21.22;48.92
60654;BME280;46476;53.614;10.048;2022-07-23T10:55:58;101567.06;;;21.22;49.00
60654;BME280;46476;53.614;10.048;2022-07-23T10:58:46;101565.78;;;21.18;49.01
60654;BME280;46476;53.614;10.048;2022-07-23T11:01:35;101563.41;;;21.15;49.19
60654;BME280;46476;53.614;10.048;2022-07-23T11:04:01;101571.25;;;21.11;49.44
60654;BME280;46476;53.614;10.048;2022-07-23T11:09:28;101573.34;;;21.09;49.21
60654;BME280;46476;53.614;10.048;2022-07-23T11:15:01;101574.13;;;21.03;49.18
60654;BME280;46476;53.614;10.048;2022-07-23T11:17:28;101579.47;;;21.04;49.33
60654;BME280;46476;53.614;10.048;2022-07-23T11:22:55;101586.91;;;21.10;49.72
60654;BME280;46476;53.614;10.048;2022-07-23T11:27:47;101572.56;;;21.22;49.61
60654;BME280;46476;53.614;10.048;2022-07-23T11:30:37;101572.22;;;21.32;49.71
60654;BME280;46476;53.614;10.048;2022-07-23T11:35:41;101561.69;;;21.42;49.00
60654;BME280;46476;53.614;10.048;2022-07-23T11:38:22;101562.97;;;21.46;48.95
60654;BME280;46476;53.614;10.048;2022-07-23T11:40:50;101560.22;;;21.46;48.77
60654;BME280;46476;53.614;10.048;2022-07-23T11:43:17;101560.00;;;21.48;48.26
60654;BME280;46476;53.614;10.048;2022-07-23T11:45:48;101564.06;;;21.52;48.16
60654;BME280;46476;53.614;10.048;2022-07-23T11:48:23;101567.69;;;21.52;48.30
60654;BME280;46476;53.614;10.048;2022-07-23T11:50:50;101566.03;;;21.58;48.22
60654;BME280;46476;53.614;10.048;2022-07-23T11:53:31;101566.25;;;21.63;48.15
60654;BME280;46476;53.614;10.048;2022-07-23T11:56:10;101567.97;;;21.64;48.07
60654;BME280;46476;53.614;10.048;2022-07-23T11:58:37;101570.72;;;21.64;48.15
60654;BME280;46476;53.614;10.048;2022-07-23T12:01:03;101571.78;;;21.70;47.85
60654;BME280;46476;53.614;10.048;2022-07-23T12:03:29;101575.00;;;21.73;47.96
60654;BME280;46476;53.614;10.048;2022-07-23T12:05:58;101575.00;;;21.73;48.02
60654;BME280;46476;53.614;10.048;2022-07-23T12:08:24;101583.25;;;21.73;48.12
60654;BME280;46476;53.614;10.048;2022-07-23T12:10:50;101582.00;;;21.76;48.00
60654;BME280;46476;53.614;10.048;2022-07-23T12:13:17;101578.38;;;21.75;47.94
60654;BME280;46476;53.614;10.048;2022-07-23T12:15:46;101583.47;;;21.72;47.86
60654;BME280;46476;53.614;10.048;2022-07-23T12:18:14;101591.94;;;21.70;47.83
60654;BME280;46476;53.614;10.048;2022-07-23T12:20:44;101584.50;;;21.64;47.53
60654;BME280;46476;53.614;10.048;2022-07-23T12:23:12;101578.53;;;21.61;47.31
60654;BME280;46476;53.614;10.048;2022-07-23T12:25:43;101584.44;;;21.57;47.76
60654;BME280;46476;53.614;10.048;2022-07-23T12:28:17;101593.31;;;21.53;47.75
60654;BME280;46476;53.614;10.048;2022-07-23T12:30:47;101593.97;;;21.55;48.95
60654;BME280;46476;53.614;10.048;2022-07-23T12:33:22;101591.09;;;21.70;49.29
60654;BME280;46476;53.614;10.048;2022-07-23T12:35:49;101591.13;;;21.83;48.64
60654;BME280;46476;53.614;10.048;2022-07-23T12:38:17;101585.25;;;21.93;48.26
60654;BME280;46476;53.614;10.048;2022-07-23T12:45:57;101586.78;;;22.09;47.81
60654;BME280;46476;53.614;10.048;2022-07-23T12:48:28;101587.63;;;22.09;47.58
60654;BME280;46476;53.614;10.048;2022-07-23T12:51:23;101586.38;;;22.12;47.03
60654;BME280;46476;53.614;10.048;2022-07-23T12:53:50;101590.41;;;22.09;47.33
60654;BME280;46476;53.614;10.048;2022-07-23T12:56:35;101591.44;;;22.08;47.02
60654;BME280;46476;53.614;10.048;2022-07-23T12:59:05;101594.41;;;22.07;46.79
60654;BME280;46476;53.614;10.048;2022-07-23T13:01:42;101596.09;;;22.08;46.50
60654;BME280;46476;53.614;10.048;2022-07-23T13:04:11;101595.69;;;22.11;46.81
60654;BME280;46476;53.614;10.048;2022-07-23T13:06:48;101582.75;;;22.12;46.51
60654;BME280;46476;53.614;10.048;2022-07-23T13:09:19;101594.22;;;22.15;46.55